sensor_id;sensor_type;location;lat;lon;timestamp;temperature;humidity
22098;DHT22;11215;51.938;8.464;2022-11-20T00:01:27;0.90;66.80
22098;DHT22;11215;51.938;8.464;2022-11-20T00:03:54;0.80;66.80
22098;DHT22;11215;51.938;8.464;2022-11-20T00:06:21;0.80;66.80
22098;DHT22;11215;51.938;8.464;2022-11-20T00:08:47;0.80;66.80
22098;DHT22;11215;51.938;8.464;2022-11-20T00:11:16;0.80;66.70
22098;DHT22;11215;51.938;8.464;2022-11-20T00:13:45;0.80;66.90
22098;DHT22;11215;51.938;8.464;2022-11-20T00:16:13;0.80;66.90
22098;DHT22;11215;51.938;8.464;2022-11-20T00:18:40;0.70;66.90
22098;DHT22;11215;51.938;8.464;2022-11-20T00:21:11;0.70;66.90
22098;DHT22;11215;51.938;8.464;2022-11-20T00:23:36;0.80;66.90
22098;DHT22;11215;51.938;8.464;2022-11-20T00:26:07;0.70;66.70
22098;DHT22;11215;51.938;8.464;2022-11-20T00:28:33;0.70;66.90
22098;DHT22;11215;51.938;8.464;2022-11-20T00:31:08;0.70;66.90
22098;DHT22;11215;51.938;8.464;2022-11-20T00:33:34;0.70;66.90
22098;DHT22;11215;51.938;8.464;2022-11-20T00:36:05;0.70;66.90
22098;DHT22;11215;51.938;8.464;2022-11-20T00:38:35;0.60;66.70
22098;DHT22;11215;51.938;8.464;2022-11-20T00:41:03;0.60;66.80
22098;DHT22;11215;51.938;8.464;2022-11-20T00:43:32;0.60;66.70
22098;DHT22;11215;51.938;8.464;2022-11-20T00:46:03;0.60;66.60
22098;DHT22;11215;51.938;8.464;2022-11-20T00:48:29;0.60;66.90
22098;DHT22;11215;51.938;8.464;2022-11-20T00:50:55;0.60;66.90
22098;DHT22;11215;51.938;8.464;2022-11-20T00:53:21;0.60;66.70
22098;DHT22;11215;51.938;8.464;2022-11-20T00:55:57;0.50;66.70
22098;DHT22;11215;51.938;8.464;2022-11-20T00:58:38;0.50;66.70
22098;DHT22;11215;51.938;8.464;2022-11-20T01:01:06;0.50;66.60
22098;DHT22;11215;51.938;8.464;2022-11-20T01:03:37;0.50;66.90
22098;DHT22;11215;51.938;8.464;2022-11-20T01:06:15;0.50;66.90
22098;DHT22;11215;51.938;8.464;2022-11-20T01:08:41;0.50;66.90
22098;DHT22;11215;51.938;8.464;2022-11-20T01:11:18;0.50;66.90
22098;DHT22;11215;51.938;8.464;2022-11-20T01:13:45;0.40;66.80
22098;DHT22;11215;51.938;8.464;2022-11-20T01:16:17;0.50;66.90
22098;DHT22;11215;51.938;8.464;2022-11-20T01:18:46;0.40;66.90
22098;DHT22;11215;51.938;8.464;2022-11-20T01:21:20;0.40;66.80
22098;DHT22;11215;51.938;8.464;2022-11-20T01:23:50;0.40;67.00
22098;DHT22;11215;51.938;8.464;2022-11-20T01:26:21;0.40;67.00
22098;DHT22;11215;51.938;8.464;2022-11-20T01:28:50;0.40;67.00
22098;DHT22;11215;51.938;8.464;2022-11-20T01:31:19;0.40;67.00
22098;DHT22;11215;51.938;8.464;2022-11-20T01:33:46;0.40;67.80
22098;DHT22;11215;51.938;8.464;2022-11-20T01:36:14;0.40;67.00
22098;DHT22;11215;51.938;8.464;2022-11-20T01:38:40;0.40;67.00
22098;DHT22;11215;51.938;8.464;2022-11-20T01:41:07;0.30;66.80
22098;DHT22;11215;51.938;8.464;2022-11-20T01:43:33;0.30;66.80
22098;DHT22;11215;51.938;8.464;2022-11-20T01:46:00;0.30;66.60
22098;DHT22;11215;51.938;8.464;2022-11-20T01:48:52;0.30;66.80
22098;DHT22;11215;51.938;8.464;2022-11-20T01:51:33;0.30;66.70
22098;DHT22;11215;51.938;8.464;2022-11-20T01:54:02;0.30;67.60
22098;DHT22;11215;51.938;8.464;2022-11-20T01:56:31;0.20;66.80
22098;DHT22;11215;51.938;8.464;2022-11-20T01:58:59;0.20;66.80
22098;DHT22;11215;51.938;8.464;2022-11-20T02:01:27;0.20;66.90
22098;DHT22;11215;51.938;8.464;2022-11-20T02:03:53;0.20;66.70
22098;DHT22;11215;51.938;8.464;2022-11-20T02:06:40;0.20;66.80
22098;DHT22;11215;51.938;8.464;2022-11-20T02:09:07;0.20;66.90
22098;DHT22;11215;51.938;8.464;2022-11-20T02:11:33;0.10;66.80
22098;DHT22;11215;51.938;8.464;2022-11-20T02:13:59;0.10;66.70
22098;DHT22;11215;51.938;8.464;2022-11-20T02:16:31;0.10;66.80
22098;DHT22;11215;51.938;8.464;2022-11-20T02:19:01;0.10;67.00
22098;DHT22;11215;51.938;8.464;2022-11-20T02:24:18;0.10;67.10
22098;DHT22;11215;51.938;8.464;2022-11-20T02:29:40;0.10;67.10
22098;DHT22;11215;51.938;8.464;2022-11-20T02:32:04;0.10;67.00
22098;DHT22;11215;51.938;8.464;2022-11-20T02:34:29;0.10;67.00
22098;DHT22;11215;51.938;8.464;2022-11-20T02:36:56;0.00;66.80
22098;DHT22;11215;51.938;8.464;2022-11-20T02:39:24;0.00;66.80
22098;DHT22;11215;51.938;8.464;2022-11-20T02:41:52;0.00;66.80
22098;DHT22;11215;51.938;8.464;2022-11-20T02:44:19;0.00;66.90
22098;DHT22;11215;51.938;8.464;2022-11-20T02:46:56;0.00;67.00
22098;DHT22;11215;51.938;8.464;2022-11-20T02:49:24;0.00;66.90
22098;DHT22;11215;51.938;8.464;2022-11-20T02:51:49;0.00;66.80
22098;DHT22;11215;51.938;8.464;2022-11-20T02:54:15;-0.10;66.80
22098;DHT22;11215;51.938;8.464;2022-11-20T02:56:40;-0.10;66.80
22098;DHT22;11215;51.938;8.464;2022-11-20T02:59:07;-0.10;66.60
22098;DHT22;11215;51.938;8.464;2022-11-20T03:01:32;-0.10;66.80
22098;DHT22;11215;51.938;8.464;2022-11-20T03:03:58;-0.10;66.50
22098;DHT22;11215;51.938;8.464;2022-11-20T03:06:24;-0.10;66.50
22098;DHT22;11215;51.938;8.464;2022-11-20T03:08:49;-0.20;66.60
22098;DHT22;11215;51.938;8.464;2022-11-20T03:11:15;-0.20;66.60
22098;DHT22;11215;51.938;8.464;2022-11-20T03:13:40;-0.20;66.70
22098;DHT22;11215;51.938;8.464;2022-11-20T03:16:15;-0.20;66.70
22098;DHT22;11215;51.938;8.464;2022-11-20T03:18:41;-0.20;66.80
22098;DHT22;11215;51.938;8.464;2022-11-20T03:21:08;-0.30;66.80
22098;DHT22;11215;51.938;8.464;2022-11-20T03:23:35;-0.30;66.90
22098;DHT22;11215;51.938;8.464;2022-11-20T03:26:12;-0.30;67.00
22098;DHT22;11215;51.938;8.464;2022-11-20T03:28:38;-0.30;67.00
22098;DHT22;11215;51.938;8.464;2022-11-20T03:31:12;-0.30;67.00
22098;DHT22;11215;51.938;8.464;2022-11-20T03:33:39;-0.30;66.80
22098;DHT22;11215;51.938;8.464;2022-11-20T03:36:09;-0.30;67.00
22098;DHT22;11215;51.938;8.464;2022-11-20T03:38:35;-0.40;67.60
22098;DHT22;11215;51.938;8.464;2022-11-20T03:41:05;-0.30;66.70
22098;DHT22;11215;51.938;8.464;2022-11-20T03:43:31;-0.30;67.00
22098;DHT22;11215;51.938;8.464;2022-11-20T03:45:57;-0.40;66.90
22098;DHT22;11215;51.938;8.464;2022-11-20T03:48:23;-0.40;66.80
22098;DHT22;11215;51.938;8.464;2022-11-20T03:50:49;-0.40;66.90
22098;DHT22;11215;51.938;8.464;2022-11-20T03:53:15;-0.40;66.70
22098;DHT22;11215;51.938;8.464;2022-11-20T03:55:41;-0.40;66.60
22098;DHT22;11215;51.938;8.464;2022-11-20T03:58:07;-0.40;66.60
22098;DHT22;11215;51.938;8.464;2022-11-20T04:00:34;-0.40;66.70
22098;DHT22;11215;51.938;8.464;2022-11-20T04:03:00;-0.40;66.70
22098;DHT22;11215;51.938;8.464;2022-11-20T04:05:26;-0.40;66.70
22098;DHT22;11215;51.938;8.464;2022-11-20T04:07:52;-0.40;66.60
22098;DHT22;11215;51.938;8.464;2022-11-20T04:10:18;-0.40;66.60
22098;DHT22;11215;51.938;8.464;2022-11-20T04:12:46;-0.50;66.50
22098;DHT22;11215;51.938;8.464;2022-11-20T04:15:12;-0.50;66.40
22098;DHT22;11215;51.938;8.464;2022-11-20T04:17:38;-0.50;66.30
22098;DHT22;11215;51.938;8.464;2022-11-20T04:20:11;-0.50;66.40
22098;DHT22;11215;51.938;8.464;2022-11-20T04:22:37;-0.50;66.20
22098;DHT22;11215;51.938;8.464;2022-11-20T04:25:03;-0.60;66.30
22098;DHT22;11215;51.938;8.464;2022-11-20T04:27:53;-0.60;66.40
22098;DHT22;11215;51.938;8.464;2022-11-20T04:30:18;-0.60;66.60
22098;DHT22;11215;51.938;8.464;2022-11-20T04:32:44;-0.60;66.60
22098;DHT22;11215;51.938;8.464;2022-11-20T04:35:10;-0.60;66.60
22098;DHT22;11215;51.938;8.464;2022-11-20T04:37:35;-0.60;66.60
22098;DHT22;11215;51.938;8.464;2022-11-20T04:40:01;-0.60;66.60
22098;DHT22;11215;51.938;8.464;2022-11-20T04:42:38;-0.60;66.60
22098;DHT22;11215;51.938;8.464;2022-11-20T04:45:07;-0.70;66.70
22098;DHT22;11215;51.938;8.464;2022-11-20T04:47:32;-0.60;66.60
22098;DHT22;11215;51.938;8.464;2022-11-20T04:49:58;-0.70;66.50
22098;DHT22;11215;51.938;8.464;2022-11-20T04:52:23;-0.70;66.60
22098;DHT22;11215;51.938;8.464;2022-11-20T04:54:49;-0.70;66.50
22098;DHT22;11215;51.938;8.464;2022-11-20T04:57:18;-0.70;66.60
22098;DHT22;11215;51.938;8.464;2022-11-20T04:59:43;-0.70;66.60
22098;DHT22;11215;51.938;8.464;2022-11-20T05:02:10;-0.70;66.50
22098;DHT22;11215;51.938;8.464;2022-11-20T05:04:36;-0.70;67.30
22098;DHT22;11215;51.938;8.464;2022-11-20T05:07:01;-0.70;66.50
22098;DHT22;11215;51.938;8.464;2022-11-20T05:09:30;-0.70;66.60
22098;DHT22;11215;51.938;8.464;2022-11-20T05:11:56;-0.70;66.40
22098;DHT22;11215;51.938;8.464;2022-11-20T05:14:22;-0.70;66.60
22098;DHT22;11215;51.938;8.464;2022-11-20T05:16:47;-0.80;66.60
22098;DHT22;11215;51.938;8.464;2022-11-20T05:19:13;-0.80;66.50
22098;DHT22;11215;51.938;8.464;2022-11-20T05:21:39;-0.80;66.40
22098;DHT22;11215;51.938;8.464;2022-11-20T05:24:04;-0.80;66.60
22098;DHT22;11215;51.938;8.464;2022-11-20T05:26:31;-0.80;66.50
22098;DHT22;11215;51.938;8.464;2022-11-20T05:28:56;-0.80;66.60
22098;DHT22;11215;51.938;8.464;2022-11-20T05:31:24;-0.80;66.60
22098;DHT22;11215;51.938;8.464;2022-11-20T05:33:50;-0.80;66.90
22098;DHT22;11215;51.938;8.464;2022-11-20T05:36:16;-0.80;66.80
22098;DHT22;11215;51.938;8.464;2022-11-20T05:38:43;-0.80;66.90
22098;DHT22;11215;51.938;8.464;2022-11-20T05:41:10;-0.80;67.00
22098;DHT22;11215;51.938;8.464;2022-11-20T05:43:37;-0.80;67.00
22098;DHT22;11215;51.938;8.464;2022-11-20T05:46:05;-0.80;66.90
22098;DHT22;11215;51.938;8.464;2022-11-20T05:48:31;-0.80;67.00
22098;DHT22;11215;51.938;8.464;2022-11-20T05:51:03;-0.80;67.00
22098;DHT22;11215;51.938;8.464;2022-11-20T05:53:29;-0.80;67.00
22098;DHT22;11215;51.938;8.464;2022-11-20T05:56:05;-0.80;66.90
22098;DHT22;11215;51.938;8.464;2022-11-20T05:58:32;-0.80;67.10
22098;DHT22;11215;51.938;8.464;2022-11-20T06:01:15;-0.80;67.20
22098;DHT22;11215;51.938;8.464;2022-11-20T06:03:42;-0.90;67.10
22098;DHT22;11215;51.938;8.464;2022-11-20T06:06:09;-0.80;67.20
22098;DHT22;11215;51.938;8.464;2022-11-20T06:08:34;-0.90;67.10
22098;DHT22;11215;51.938;8.464;2022-11-20T06:11:08;-0.80;67.20
22098;DHT22;11215;51.938;8.464;2022-11-20T06:13:39;-0.90;67.20
22098;DHT22;11215;51.938;8.464;2022-11-20T06:16:10;-0.90;67.30
22098;DHT22;11215;51.938;8.464;2022-11-20T06:18:36;-0.80;67.30
22098;DHT22;11215;51.938;8.464;2022-11-20T06:21:10;-0.90;67.10
22098;DHT22;11215;51.938;8.464;2022-11-20T06:23:36;-0.80;67.30
22098;DHT22;11215;51.938;8.464;2022-11-20T06:26:03;-0.90;67.10
22098;DHT22;11215;51.938;8.464;2022-11-20T06:28:29;-0.90;67.20
22098;DHT22;11215;51.938;8.464;2022-11-20T06:30:55;-0.80;66.90
22098;DHT22;11215;51.938;8.464;2022-11-20T06:33:21;-0.80;67.10
22098;DHT22;11215;51.938;8.464;2022-11-20T06:35:46;-0.80;67.20
22098;DHT22;11215;51.938;8.464;2022-11-20T06:38:12;-0.90;67.00
22098;DHT22;11215;51.938;8.464;2022-11-20T06:40:40;-0.90;67.00
22098;DHT22;11215;51.938;8.464;2022-11-20T06:43:09;-0.90;67.30
22098;DHT22;11215;51.938;8.464;2022-11-20T06:45:36;-0.90;67.20
22098;DHT22;11215;51.938;8.464;2022-11-20T06:48:01;-0.90;67.30
22098;DHT22;11215;51.938;8.464;2022-11-20T06:50:27;-0.90;67.50
22098;DHT22;11215;51.938;8.464;2022-11-20T06:52:53;-0.90;67.50
22098;DHT22;11215;51.938;8.464;2022-11-20T06:55:18;-0.90;67.80
22098;DHT22;11215;51.938;8.464;2022-11-20T06:57:44;-0.80;67.90
22098;DHT22;11215;51.938;8.464;2022-11-20T07:00:10;-0.80;67.90
22098;DHT22;11215;51.938;8.464;2022-11-20T07:02:36;-0.80;68.30
22098;DHT22;11215;51.938;8.464;2022-11-20T07:05:02;-0.80;68.20
22098;DHT22;11215;51.938;8.464;2022-11-20T07:07:27;-0.80;68.20
22098;DHT22;11215;51.938;8.464;2022-11-20T07:09:53;-0.70;68.60
22098;DHT22;11215;51.938;8.464;2022-11-20T07:12:19;-0.70;68.50
22098;DHT22;11215;51.938;8.464;2022-11-20T07:14:44;-0.70;68.80
22098;DHT22;11215;51.938;8.464;2022-11-20T07:17:11;-0.60;68.90
22098;DHT22;11215;51.938;8.464;2022-11-20T07:19:36;-0.60;69.10
22098;DHT22;11215;51.938;8.464;2022-11-20T07:22:02;-0.50;69.10
22098;DHT22;11215;51.938;8.464;2022-11-20T07:24:27;-0.50;69.10
22098;DHT22;11215;51.938;8.464;2022-11-20T07:26:53;-0.50;69.30
22098;DHT22;11215;51.938;8.464;2022-11-20T07:29:21;-0.40;69.20
22098;DHT22;11215;51.938;8.464;2022-11-20T07:31:47;-0.40;69.10
22098;DHT22;11215;51.938;8.464;2022-11-20T07:34:13;-0.40;69.40
22098;DHT22;11215;51.938;8.464;2022-11-20T07:36:39;-0.30;69.50
22098;DHT22;11215;51.938;8.464;2022-11-20T07:39:05;-0.30;69.40
22098;DHT22;11215;51.938;8.464;2022-11-20T07:41:30;-0.20;69.40
22098;DHT22;11215;51.938;8.464;2022-11-20T07:43:57;-0.20;69.40
22098;DHT22;11215;51.938;8.464;2022-11-20T07:46:23;-0.10;69.20
22098;DHT22;11215;51.938;8.464;2022-11-20T07:48:48;-0.10;69.40
22098;DHT22;11215;51.938;8.464;2022-11-20T07:51:14;-0.10;69.50
22098;DHT22;11215;51.938;8.464;2022-11-20T07:53:40;0.00;69.70
22098;DHT22;11215;51.938;8.464;2022-11-20T07:56:06;0.00;69.60
22098;DHT22;11215;51.938;8.464;2022-11-20T07:58:32;0.00;69.50
22098;DHT22;11215;51.938;8.464;2022-11-20T08:01:04;0.10;69.80
22098;DHT22;11215;51.938;8.464;2022-11-20T08:03:30;0.10;69.70
22098;DHT22;11215;51.938;8.464;2022-11-20T08:05:59;0.20;69.60
22098;DHT22;11215;51.938;8.464;2022-11-20T08:08:26;0.20;69.90
22098;DHT22;11215;51.938;8.464;2022-11-20T08:10:52;0.30;69.80
22098;DHT22;11215;51.938;8.464;2022-11-20T08:13:18;0.30;69.70
22098;DHT22;11215;51.938;8.464;2022-11-20T08:16:02;0.30;69.60
22098;DHT22;11215;51.938;8.464;2022-11-20T08:18:28;0.30;69.60
22098;DHT22;11215;51.938;8.464;2022-11-20T08:20:53;0.40;69.90
22098;DHT22;11215;51.938;8.464;2022-11-20T08:23:19;0.40;69.90
22098;DHT22;11215;51.938;8.464;2022-11-20T08:25:49;0.40;69.90
22098;DHT22;11215;51.938;8.464;2022-11-20T08:28:15;0.50;70.00
22098;DHT22;11215;51.938;8.464;2022-11-20T08:30:40;0.50;69.90
22098;DHT22;11215;51.938;8.464;2022-11-20T08:33:08;0.60;69.90
22098;DHT22;11215;51.938;8.464;2022-11-20T08:35:35;0.60;70.00
22098;DHT22;11215;51.938;8.464;2022-11-20T08:38:02;0.60;70.10
22098;DHT22;11215;51.938;8.464;2022-11-20T08:40:28;0.70;70.10
22098;DHT22;11215;51.938;8.464;2022-11-20T08:42:53;0.70;70.00
22098;DHT22;11215;51.938;8.464;2022-11-20T08:45:19;0.80;70.00
22098;DHT22;11215;51.938;8.464;2022-11-20T08:47:45;0.80;70.20
22098;DHT22;11215;51.938;8.464;2022-11-20T08:50:13;0.80;70.20
22098;DHT22;11215;51.938;8.464;2022-11-20T08:52:39;0.90;70.30
22098;DHT22;11215;51.938;8.464;2022-11-20T08:55:05;0.90;70.20
22098;DHT22;11215;51.938;8.464;2022-11-20T08:57:33;1.00;70.20
22098;DHT22;11215;51.938;8.464;2022-11-20T08:59:59;1.00;70.10
22098;DHT22;11215;51.938;8.464;2022-11-20T09:02:25;1.00;70.00
22098;DHT22;11215;51.938;8.464;2022-11-20T09:04:50;1.10;70.00
22098;DHT22;11215;51.938;8.464;2022-11-20T09:07:16;1.10;70.00
22098;DHT22;11215;51.938;8.464;2022-11-20T09:09:42;1.10;70.00
22098;DHT22;11215;51.938;8.464;2022-11-20T09:12:07;1.20;70.10
22098;DHT22;11215;51.938;8.464;2022-11-20T09:14:33;1.20;70.10
22098;DHT22;11215;51.938;8.464;2022-11-20T09:16:59;1.30;70.00
22098;DHT22;11215;51.938;8.464;2022-11-20T09:19:25;1.30;70.10
22098;DHT22;11215;51.938;8.464;2022-11-20T09:21:51;1.30;70.20
22098;DHT22;11215;51.938;8.464;2022-11-20T09:24:17;1.30;70.40
22098;DHT22;11215;51.938;8.464;2022-11-20T09:26:43;1.40;70.70
22098;DHT22;11215;51.938;8.464;2022-11-20T09:29:08;1.40;70.80
22098;DHT22;11215;51.938;8.464;2022-11-20T09:31:34;1.50;70.90
22098;DHT22;11215;51.938;8.464;2022-11-20T09:34:00;1.50;70.90
22098;DHT22;11215;51.938;8.464;2022-11-20T09:36:25;1.50;71.00
22098;DHT22;11215;51.938;8.464;2022-11-20T09:38:51;1.60;71.10
22098;DHT22;11215;51.938;8.464;2022-11-20T09:41:45;1.70;71.30
22098;DHT22;11215;51.938;8.464;2022-11-20T09:52:17;1.90;71.50
22098;DHT22;11215;51.938;8.464;2022-11-20T09:54:46;2.00;71.60
22098;DHT22;11215;51.938;8.464;2022-11-20T09:57:16;2.10;71.50
22098;DHT22;11215;51.938;8.464;2022-11-20T09:59:49;2.10;71.50
22098;DHT22;11215;51.938;8.464;2022-11-20T10:02:30;2.20;71.70
22098;DHT22;11215;51.938;8.464;2022-11-20T10:05:28;2.20;71.70
22098;DHT22;11215;51.938;8.464;2022-11-20T10:08:25;2.30;71.70
22098;DHT22;11215;51.938;8.464;2022-11-20T10:25:16;2.70;71.70
22098;DHT22;11215;51.938;8.464;2022-11-20T10:30:09;2.80;71.50
22098;DHT22;11215;51.938;8.464;2022-11-20T10:32:41;2.80;71.60
22098;DHT22;11215;51.938;8.464;2022-11-20T10:37:44;2.90;71.40
22098;DHT22;11215;51.938;8.464;2022-11-20T10:43:08;3.00;71.30
22098;DHT22;11215;51.938;8.464;2022-11-20T10:46:10;3.10;71.20
22098;DHT22;11215;51.938;8.464;2022-11-20T10:48:36;3.10;71.30
22098;DHT22;11215;51.938;8.464;2022-11-20T10:51:10;3.20;71.10
22098;DHT22;11215;51.938;8.464;2022-11-20T10:56:27;3.20;71.10
22098;DHT22;11215;51.938;8.464;2022-11-20T11:01:41;3.30;71.20
22098;DHT22;11215;51.938;8.464;2022-11-20T11:06:48;3.40;71.40
22098;DHT22;11215;51.938;8.464;2022-11-20T11:09:17;3.40;71.20
22098;DHT22;11215;51.938;8.464;2022-11-20T11:11:46;3.50;71.30
22098;DHT22;11215;51.938;8.464;2022-11-20T11:14:15;3.50;71.20
22098;DHT22;11215;51.938;8.464;2022-11-20T11:16:51;3.60;71.20
22098;DHT22;11215;51.938;8.464;2022-11-20T11:19:17;3.60;71.30
22098;DHT22;11215;51.938;8.464;2022-11-20T11:21:53;3.70;71.10
22098;DHT22;11215;51.938;8.464;2022-11-20T11:27:09;3.80;71.20
22098;DHT22;11215;51.938;8.464;2022-11-20T11:29:36;3.80;71.30
22098;DHT22;11215;51.938;8.464;2022-11-20T11:32:17;3.80;71.10
22098;DHT22;11215;51.938;8.464;2022-11-20T11:34:43;3.90;71.20
22098;DHT22;11215;51.938;8.464;2022-11-20T11:37:20;4.00;71.10
22098;DHT22;11215;51.938;8.464;2022-11-20T11:39:49;4.00;71.10
22098;DHT22;11215;51.938;8.464;2022-11-20T11:42:17;4.00;71.00
22098;DHT22;11215;51.938;8.464;2022-11-20T11:44:46;4.00;71.00
22098;DHT22;11215;51.938;8.464;2022-11-20T11:47:36;4.10;71.80
22098;DHT22;11215;51.938;8.464;2022-11-20T11:55:17;4.20;70.70
22098;DHT22;11215;51.938;8.464;2022-11-20T11:57:52;4.30;70.80
22098;DHT22;11215;51.938;8.464;2022-11-20T12:00:21;4.30;70.80
22098;DHT22;11215;51.938;8.464;2022-11-20T12:05:29;4.30;70.60
22098;DHT22;11215;51.938;8.464;2022-11-20T12:10:56;4.40;70.50
22098;DHT22;11215;51.938;8.464;2022-11-20T12:13:38;4.40;70.50
22098;DHT22;11215;51.938;8.464;2022-11-20T12:16:05;4.50;70.50
22098;DHT22;11215;51.938;8.464;2022-11-20T12:18:31;4.50;70.50
22098;DHT22;11215;51.938;8.464;2022-11-20T12:26:31;4.60;70.20
22098;DHT22;11215;51.938;8.464;2022-11-20T12:29:32;4.60;70.20
22098;DHT22;11215;51.938;8.464;2022-11-20T12:43:21;4.70;69.70
22098;DHT22;11215;51.938;8.464;2022-11-20T12:46:22;4.70;69.70
22098;DHT22;11215;51.938;8.464;2022-11-20T12:52:02;4.80;69.70
22098;DHT22;11215;51.938;8.464;2022-11-20T13:05:55;4.70;69.60
22098;DHT22;11215;51.938;8.464;2022-11-20T13:08:28;4.70;69.60
22098;DHT22;11215;51.938;8.464;2022-11-20T13:11:00;4.80;69.70
22098;DHT22;11215;51.938;8.464;2022-11-20T13:14:03;4.70;69.80
22098;DHT22;11215;51.938;8.464;2022-11-20T13:16:37;4.80;70.00
22098;DHT22;11215;51.938;8.464;2022-11-20T13:19:04;4.70;70.00
22098;DHT22;11215;51.938;8.464;2022-11-20T13:21:42;4.80;70.00
22098;DHT22;11215;51.938;8.464;2022-11-20T13:26:46;4.80;70.20
22098;DHT22;11215;51.938;8.464;2022-11-20T13:29:16;4.90;70.20
22098;DHT22;11215;51.938;8.464;2022-11-20T13:31:47;4.90;70.30
22098;DHT22;11215;51.938;8.464;2022-11-20T13:34:27;4.90;70.30
22098;DHT22;11215;51.938;8.464;2022-11-20T13:36:57;5.00;70.20
22098;DHT22;11215;51.938;8.464;2022-11-20T13:39:34;5.00;70.10
22098;DHT22;11215;51.938;8.464;2022-11-20T13:44:35;5.10;69.90
22098;DHT22;11215;51.938;8.464;2022-11-20T13:47:03;5.10;69.90
22098;DHT22;11215;51.938;8.464;2022-11-20T13:49:38;5.10;69.70
22098;DHT22;11215;51.938;8.464;2022-11-20T13:52:20;5.10;69.70
22098;DHT22;11215;51.938;8.464;2022-11-20T13:57:35;5.10;69.60
22098;DHT22;11215;51.938;8.464;2022-11-20T14:00:29;5.10;69.60
22098;DHT22;11215;51.938;8.464;2022-11-20T14:05:38;5.10;69.60
22098;DHT22;11215;51.938;8.464;2022-11-20T14:08:14;5.10;69.60
22098;DHT22;11215;51.938;8.464;2022-11-20T14:10:42;5.10;69.60
22098;DHT22;11215;51.938;8.464;2022-11-20T14:13:18;5.10;69.70
22098;DHT22;11215;51.938;8.464;2022-11-20T14:15:44;5.10;69.80
22098;DHT22;11215;51.938;8.464;2022-11-20T14:18:19;5.10;69.80
22098;DHT22;11215;51.938;8.464;2022-11-20T14:20:45;5.10;69.90
22098;DHT22;11215;51.938;8.464;2022-11-20T14:23:11;5.10;70.00
22098;DHT22;11215;51.938;8.464;2022-11-20T14:25:42;5.10;70.80
22098;DHT22;11215;51.938;8.464;2022-11-20T14:28:28;5.10;70.00
22098;DHT22;11215;51.938;8.464;2022-11-20T14:30:54;5.10;70.00
22098;DHT22;11215;51.938;8.464;2022-11-20T14:33:21;5.10;69.90
22098;DHT22;11215;51.938;8.464;2022-11-20T14:35:55;5.10;70.00
22098;DHT22;11215;51.938;8.464;2022-11-20T14:38:25;5.10;70.00
22098;DHT22;11215;51.938;8.464;2022-11-20T14:40:51;5.10;70.00
22098;DHT22;11215;51.938;8.464;2022-11-20T14:43:28;5.10;69.90
22098;DHT22;11215;51.938;8.464;2022-11-20T14:46:00;5.10;70.00
22098;DHT22;11215;51.938;8.464;2022-11-20T14:51:38;5.00;70.00
22098;DHT22;11215;51.938;8.464;2022-11-20T14:54:14;5.00;70.00
22098;DHT22;11215;51.938;8.464;2022-11-20T14:56:41;5.00;70.00
22098;DHT22;11215;51.938;8.464;2022-11-20T14:59:08;5.00;70.10
22098;DHT22;11215;51.938;8.464;2022-11-20T15:01:34;5.00;70.00
22098;DHT22;11215;51.938;8.464;2022-11-20T15:04:06;5.00;70.00
22098;DHT22;11215;51.938;8.464;2022-11-20T15:06:32;5.00;70.10
22098;DHT22;11215;51.938;8.464;2022-11-20T15:08:58;5.00;70.90
22098;DHT22;11215;51.938;8.464;2022-11-20T15:11:29;5.00;70.20
22098;DHT22;11215;51.938;8.464;2022-11-20T15:13:55;4.90;70.20
22098;DHT22;11215;51.938;8.464;2022-11-20T15:16:22;5.00;70.20
22098;DHT22;11215;51.938;8.464;2022-11-20T15:18:49;4.90;70.10
22098;DHT22;11215;51.938;8.464;2022-11-20T15:21:17;4.90;70.10
22098;DHT22;11215;51.938;8.464;2022-11-20T15:23:44;4.90;70.20
22098;DHT22;11215;51.938;8.464;2022-11-20T15:26:12;4.90;70.20
22098;DHT22;11215;51.938;8.464;2022-11-20T15:28:45;4.90;70.90
22098;DHT22;11215;51.938;8.464;2022-11-20T15:31:14;4.90;70.20
22098;DHT22;11215;51.938;8.464;2022-11-20T15:33:40;4.90;70.20
22098;DHT22;11215;51.938;8.464;2022-11-20T15:36:09;4.90;70.00
22098;DHT22;11215;51.938;8.464;2022-11-20T15:38:35;4.90;70.20
22098;DHT22;11215;51.938;8.464;2022-11-20T15:41:00;4.90;70.00
22098;DHT22;11215;51.938;8.464;2022-11-20T15:43:26;4.90;70.00
22098;DHT22;11215;51.938;8.464;2022-11-20T15:46:13;4.80;69.70
22098;DHT22;11215;51.938;8.464;2022-11-20T15:48:43;4.80;69.90
22098;DHT22;11215;51.938;8.464;2022-11-20T15:53:35;4.80;69.70
22098;DHT22;11215;51.938;8.464;2022-11-20T15:56:01;4.80;69.70
22098;DHT22;11215;51.938;8.464;2022-11-20T15:58:26;4.80;69.70
22098;DHT22;11215;51.938;8.464;2022-11-20T16:00:52;4.80;69.50
22098;DHT22;11215;51.938;8.464;2022-11-20T16:03:18;4.80;69.50
22098;DHT22;11215;51.938;8.464;2022-11-20T16:05:44;4.80;69.50
22098;DHT22;11215;51.938;8.464;2022-11-20T16:08:10;4.90;69.60
22098;DHT22;11215;51.938;8.464;2022-11-20T16:10:36;4.80;69.40
22098;DHT22;11215;51.938;8.464;2022-11-20T16:13:02;4.90;69.60
22098;DHT22;11215;51.938;8.464;2022-11-20T16:15:52;4.90;69.60
22098;DHT22;11215;51.938;8.464;2022-11-20T16:18:21;4.90;69.60
22098;DHT22;11215;51.938;8.464;2022-11-20T16:20:51;4.90;69.40
22098;DHT22;11215;51.938;8.464;2022-11-20T16:23:17;4.90;69.60
22098;DHT22;11215;51.938;8.464;2022-11-20T16:25:43;4.90;69.50
22098;DHT22;11215;51.938;8.464;2022-11-20T16:28:09;4.90;69.60
22098;DHT22;11215;51.938;8.464;2022-11-20T16:30:35;4.90;69.50
22098;DHT22;11215;51.938;8.464;2022-11-20T16:33:01;4.90;69.60
22098;DHT22;11215;51.938;8.464;2022-11-20T16:35:28;4.90;69.40
22098;DHT22;11215;51.938;8.464;2022-11-20T16:37:55;4.90;69.40
22098;DHT22;11215;51.938;8.464;2022-11-20T16:40:22;4.90;69.40
22098;DHT22;11215;51.938;8.464;2022-11-20T16:42:47;4.90;69.30
22098;DHT22;11215;51.938;8.464;2022-11-20T16:45:13;4.90;69.20
22098;DHT22;11215;51.938;8.464;2022-11-20T16:47:39;4.90;69.10
22098;DHT22;11215;51.938;8.464;2022-11-20T16:50:05;4.90;69.00
22098;DHT22;11215;51.938;8.464;2022-11-20T16:52:31;4.90;68.90
22098;DHT22;11215;51.938;8.464;2022-11-20T16:54:57;4.90;68.90
22098;DHT22;11215;51.938;8.464;2022-11-20T16:57:23;4.90;68.90
22098;DHT22;11215;51.938;8.464;2022-11-20T16:59:49;4.90;68.80
22098;DHT22;11215;51.938;8.464;2022-11-20T17:02:15;4.90;68.70
22098;DHT22;11215;51.938;8.464;2022-11-20T17:04:40;4.90;68.80
22098;DHT22;11215;51.938;8.464;2022-11-20T17:07:07;4.90;68.70
22098;DHT22;11215;51.938;8.464;2022-11-20T17:09:32;4.90;68.80
22098;DHT22;11215;51.938;8.464;2022-11-20T17:11:58;4.90;68.70
22098;DHT22;11215;51.938;8.464;2022-11-20T17:14:24;4.90;68.50
22098;DHT22;11215;51.938;8.464;2022-11-20T17:16:50;4.90;68.50
22098;DHT22;11215;51.938;8.464;2022-11-20T17:19:15;4.90;68.50
22098;DHT22;11215;51.938;8.464;2022-11-20T17:21:41;5.00;68.50
22098;DHT22;11215;51.938;8.464;2022-11-20T17:24:09;4.90;68.40
22098;DHT22;11215;51.938;8.464;2022-11-20T17:26:36;4.90;68.30
22098;DHT22;11215;51.938;8.464;2022-11-20T17:29:05;4.90;68.40
22098;DHT22;11215;51.938;8.464;2022-11-20T17:31:32;4.90;68.40
22098;DHT22;11215;51.938;8.464;2022-11-20T17:33:58;4.90;68.30
22098;DHT22;11215;51.938;8.464;2022-11-20T17:36:25;4.90;68.20
22098;DHT22;11215;51.938;8.464;2022-11-20T17:38:51;4.90;68.20